sensor_id;sensor_type;location;lat;lon;timestamp;P1;durP1;ratioP1;P2;durP2;ratioP2
66118;SDS011;52912;48.564;9.302;2024-02-21T00:00:52;16.05;;;4.80;;
66118;SDS011;52912;48.564;9.302;2024-02-21T00:03:18;10.48;;;5.35;;
66118;SDS011;52912;48.564;9.302;2024-02-21T00:05:43;13.48;;;5.93;;
66118;SDS011;52912;48.564;9.302;2024-02-21T00:08:09;10.50;;;5.05;;
66118;SDS011;52912;48.564;9.302;2024-02-21T00:10:34;11.20;;;5.40;;
66118;SDS011;52912;48.564;9.302;2024-02-21T00:12:59;17.88;;;5.15;;
66118;SDS011;52912;48.564;9.302;2024-02-21T00:15:25;14.40;;;5.78;;
66118;SDS011;52912;48.564;9.302;2024-02-21T00:17:52;12.25;;;5.55;;
66118;SDS011;52912;48.564;9.302;2024-02-21T00:20:19;11.70;;;5.55;;
66118;SDS011;52912;48.564;9.302;2024-02-21T00:22:45;12.93;;;5.30;;
66118;SDS011;52912;48.564;9.302;2024-02-21T00:25:11;10.57;;;4.93;;
66118;SDS011;52912;48.564;9.302;2024-02-21T00:27:36;15.30;;;4.75;;
66118;SDS011;52912;48.564;9.302;2024-02-21T00:30:02;14.20;;;4.93;;
66118;SDS011;52912;48.564;9.302;2024-02-21T00:32:27;16.67;;;5.03;;
66118;SDS011;52912;48.564;9.302;2024-02-21T00:34:54;13.55;;;4.97;;
66118;SDS011;52912;48.564;9.302;2024-02-21T00:37:20;12.18;;;4.82;;
66118;SDS011;52912;48.564;9.302;2024-02-21T00:39:45;13.02;;;4.60;;
66118;SDS011;52912;48.564;9.302;2024-02-21T00:42:11;10.98;;;4.88;;
66118;SDS011;52912;48.564;9.302;2024-02-21T00:44:36;12.57;;;4.80;;
66118;SDS011;52912;48.564;9.302;2024-02-21T00:47:01;12.30;;;4.25;;
66118;SDS011;52912;48.564;9.302;2024-02-21T00:49:27;10.07;;;4.68;;
66118;SDS011;52912;48.564;9.302;2024-02-21T00:51:54;10.88;;;4.55;;
66118;SDS011;52912;48.564;9.302;2024-02-21T00:54:19;12.93;;;4.75;;
66118;SDS011;52912;48.564;9.302;2024-02-21T00:56:44;11.95;;;5.03;;
66118;SDS011;52912;48.564;9.302;2024-02-21T00:59:10;14.43;;;4.20;;
66118;SDS011;52912;48.564;9.302;2024-02-21T01:01:35;13.18;;;4.72;;
66118;SDS011;52912;48.564;9.302;2024-02-21T01:04:01;10.88;;;4.47;;
66118;SDS011;52912;48.564;9.302;2024-02-21T01:06:26;10.32;;;4.10;;
66118;SDS011;52912;48.564;9.302;2024-02-21T01:08:53;12.38;;;4.32;;
66118;SDS011;52912;48.564;9.302;2024-02-21T01:11:18;11.75;;;4.55;;
66118;SDS011;52912;48.564;9.302;2024-02-21T01:13:44;13.50;;;4.63;;
66118;SDS011;52912;48.564;9.302;2024-02-21T01:16:09;16.15;;;4.55;;
66118;SDS011;52912;48.564;9.302;2024-02-21T01:18:36;14.70;;;4.95;;
66118;SDS011;52912;48.564;9.302;2024-02-21T01:21:02;12.23;;;4.53;;
66118;SDS011;52912;48.564;9.302;2024-02-21T01:23:28;10.55;;;4.90;;
66118;SDS011;52912;48.564;9.302;2024-02-21T01:25:55;13.05;;;4.63;;
66118;SDS011;52912;48.564;9.302;2024-02-21T01:28:20;9.75;;;4.30;;
66118;SDS011;52912;48.564;9.302;2024-02-21T01:30:46;16.58;;;4.65;;
66118;SDS011;52912;48.564;9.302;2024-02-21T01:33:11;9.73;;;4.25;;
66118;SDS011;52912;48.564;9.302;2024-02-21T01:35:37;10.52;;;3.80;;
66118;SDS011;52912;48.564;9.302;2024-02-21T01:38:02;11.52;;;4.03;;
66118;SDS011;52912;48.564;9.302;2024-02-21T01:40:28;16.15;;;4.45;;
66118;SDS011;52912;48.564;9.302;2024-02-21T01:42:55;10.88;;;4.25;;
66118;SDS011;52912;48.564;9.302;2024-02-21T01:45:21;12.90;;;4.57;;
66118;SDS011;52912;48.564;9.302;2024-02-21T01:47:46;9.82;;;3.92;;
66118;SDS011;52912;48.564;9.302;2024-02-21T01:50:12;10.27;;;4.20;;
66118;SDS011;52912;48.564;9.302;2024-02-21T01:52:39;9.93;;;3.58;;
66118;SDS011;52912;48.564;9.302;2024-02-21T01:55:06;14.55;;;3.80;;
66118;SDS011;52912;48.564;9.302;2024-02-21T01:57:32;11.05;;;3.63;;
66118;SDS011;52912;48.564;9.302;2024-02-21T02:00:00;9.40;;;3.72;;
66118;SDS011;52912;48.564;9.302;2024-02-21T02:02:25;8.52;;;3.40;;
66118;SDS011;52912;48.564;9.302;2024-02-21T02:04:51;10.85;;;3.63;;
66118;SDS011;52912;48.564;9.302;2024-02-21T02:07:17;7.38;;;3.38;;
66118;SDS011;52912;48.564;9.302;2024-02-21T02:09:42;11.63;;;3.58;;
66118;SDS011;52912;48.564;9.302;2024-02-21T02:12:08;9.20;;;3.53;;
66118;SDS011;52912;48.564;9.302;2024-02-21T02:14:36;8.48;;;2.90;;
66118;SDS011;52912;48.564;9.302;2024-02-21T02:17:03;8.73;;;3.10;;
66118;SDS011;52912;48.564;9.302;2024-02-21T02:19:29;7.03;;;2.90;;
66118;SDS011;52912;48.564;9.302;2024-02-21T02:21:56;7.47;;;2.80;;
66118;SDS011;52912;48.564;9.302;2024-02-21T02:24:29;11.15;;;2.92;;
66118;SDS011;52912;48.564;9.302;2024-02-21T02:26:54;7.22;;;2.83;;
66118;SDS011;52912;48.564;9.302;2024-02-21T02:29:19;12.57;;;3.00;;
66118;SDS011;52912;48.564;9.302;2024-02-21T02:31:45;11.00;;;3.08;;
66118;SDS011;52912;48.564;9.302;2024-02-21T02:34:10;9.25;;;3.13;;
66118;SDS011;52912;48.564;9.302;2024-02-21T02:36:36;15.25;;;3.30;;
66118;SDS011;52912;48.564;9.302;2024-02-21T02:39:01;9.52;;;2.70;;
66118;SDS011;52912;48.564;9.302;2024-02-21T02:41:28;13.68;;;2.75;;
66118;SDS011;52912;48.564;9.302;2024-02-21T02:43:54;8.35;;;2.70;;
66118;SDS011;52912;48.564;9.302;2024-02-21T02:46:19;9.55;;;2.75;;
66118;SDS011;52912;48.564;9.302;2024-02-21T02:48:44;10.20;;;2.83;;
66118;SDS011;52912;48.564;9.302;2024-02-21T02:51:10;8.90;;;2.30;;
66118;SDS011;52912;48.564;9.302;2024-02-21T02:53:35;7.28;;;2.30;;
66118;SDS011;52912;48.564;9.302;2024-02-21T02:56:01;9.02;;;2.38;;
66118;SDS011;52912;48.564;9.302;2024-02-21T02:58:28;7.60;;;2.28;;
66118;SDS011;52912;48.564;9.302;2024-02-21T03:00:53;4.90;;;2.28;;
66118;SDS011;52912;48.564;9.302;2024-02-21T03:03:19;9.35;;;3.00;;
66118;SDS011;52912;48.564;9.302;2024-02-21T03:05:44;4.47;;;1.80;;
66118;SDS011;52912;48.564;9.302;2024-02-21T03:08:11;7.45;;;2.40;;
66118;SDS011;52912;48.564;9.302;2024-02-21T03:10:36;4.68;;;2.15;;
66118;SDS011;52912;48.564;9.302;2024-02-21T03:13:02;9.18;;;2.53;;
66118;SDS011;52912;48.564;9.302;2024-02-21T03:15:29;9.43;;;2.45;;
66118;SDS011;52912;48.564;9.302;2024-02-21T03:17:54;15.65;;;3.17;;
66118;SDS011;52912;48.564;9.302;2024-02-21T03:20:19;7.40;;;3.20;;
66118;SDS011;52912;48.564;9.302;2024-02-21T03:22:45;8.13;;;3.08;;
66118;SDS011;52912;48.564;9.302;2024-02-21T03:25:10;9.82;;;3.50;;
66118;SDS011;52912;48.564;9.302;2024-02-21T03:27:36;7.22;;;3.10;;
66118;SDS011;52912;48.564;9.302;2024-02-21T03:30:02;6.68;;;2.80;;
66118;SDS011;52912;48.564;9.302;2024-02-21T03:32:29;5.60;;;2.53;;
66118;SDS011;52912;48.564;9.302;2024-02-21T03:34:54;10.48;;;3.60;;
66118;SDS011;52912;48.564;9.302;2024-02-21T03:37:20;10.57;;;4.20;;
66118;SDS011;52912;48.564;9.302;2024-02-21T03:39:45;7.90;;;3.50;;
66118;SDS011;52912;48.564;9.302;2024-02-21T03:42:11;9.30;;;4.25;;
66118;SDS011;52912;48.564;9.302;2024-02-21T03:44:36;9.07;;;4.60;;
66118;SDS011;52912;48.564;9.302;2024-02-21T03:47:02;6.57;;;3.80;;
66118;SDS011;52912;48.564;9.302;2024-02-21T03:49:29;10.82;;;4.28;;
66118;SDS011;52912;48.564;9.302;2024-02-21T03:51:54;9.77;;;4.65;;
66118;SDS011;52912;48.564;9.302;2024-02-21T03:54:20;12.13;;;4.72;;
66118;SDS011;52912;48.564;9.302;2024-02-21T03:56:45;9.80;;;4.40;;
66118;SDS011;52912;48.564;9.302;2024-02-21T03:59:11;11.00;;;4.43;;
66118;SDS011;52912;48.564;9.302;2024-02-21T04:01:36;11.13;;;4.80;;
66118;SDS011;52912;48.564;9.302;2024-02-21T04:04:01;8.98;;;4.30;;
66118;SDS011;52912;48.564;9.302;2024-02-21T04:06:28;10.68;;;4.43;;
66118;SDS011;52912;48.564;9.302;2024-02-21T04:08:54;14.02;;;5.03;;
66118;SDS011;52912;48.564;9.302;2024-02-21T04:11:19;9.38;;;4.57;;
66118;SDS011;52912;48.564;9.302;2024-02-21T04:13:45;8.88;;;4.25;;
66118;SDS011;52912;48.564;9.302;2024-02-21T04:16:10;12.23;;;5.05;;
66118;SDS011;52912;48.564;9.302;2024-02-21T04:18:36;11.02;;;5.18;;
66118;SDS011;52912;48.564;9.302;2024-02-21T04:21:01;17.08;;;5.05;;
66118;SDS011;52912;48.564;9.302;2024-02-21T04:23:28;9.35;;;5.00;;
66118;SDS011;52912;48.564;9.302;2024-02-21T04:25:54;11.88;;;4.43;;
66118;SDS011;52912;48.564;9.302;2024-02-21T04:28:19;12.63;;;5.40;;
66118;SDS011;52912;48.564;9.302;2024-02-21T04:30:44;8.90;;;4.43;;
66118;SDS011;52912;48.564;9.302;2024-02-21T04:33:10;8.70;;;4.55;;
66118;SDS011;52912;48.564;9.302;2024-02-21T04:35:36;10.63;;;4.43;;
66118;SDS011;52912;48.564;9.302;2024-02-21T04:38:01;11.88;;;4.55;;
66118;SDS011;52912;48.564;9.302;2024-02-21T04:40:28;9.13;;;4.32;;
66118;SDS011;52912;48.564;9.302;2024-02-21T04:42:54;10.57;;;4.65;;
66118;SDS011;52912;48.564;9.302;2024-02-21T04:45:19;12.00;;;4.63;;
66118;SDS011;52912;48.564;9.302;2024-02-21T04:47:44;9.00;;;4.80;;
66118;SDS011;52912;48.564;9.302;2024-02-21T04:50:10;10.93;;;5.32;;
66118;SDS011;52912;48.564;9.302;2024-02-21T04:52:35;9.80;;;4.85;;
66118;SDS011;52912;48.564;9.302;2024-02-21T04:55:01;9.98;;;4.25;;
66118;SDS011;52912;48.564;9.302;2024-02-21T04:57:28;11.10;;;4.85;;
66118;SDS011;52912;48.564;9.302;2024-02-21T04:59:53;9.00;;;5.15;;
66118;SDS011;52912;48.564;9.302;2024-02-21T05:02:18;9.88;;;4.75;;
66118;SDS011;52912;48.564;9.302;2024-02-21T05:04:44;10.13;;;4.32;;
66118;SDS011;52912;48.564;9.302;2024-02-21T05:07:10;11.90;;;4.47;;
66118;SDS011;52912;48.564;9.302;2024-02-21T05:09:36;10.73;;;4.10;;
66118;SDS011;52912;48.564;9.302;2024-02-21T05:12:01;10.13;;;4.30;;
66118;SDS011;52912;48.564;9.302;2024-02-21T05:14:28;12.38;;;3.90;;
66118;SDS011;52912;48.564;9.302;2024-02-21T05:16:54;9.32;;;3.65;;
66118;SDS011;52912;48.564;9.302;2024-02-21T05:19:19;10.73;;;4.13;;
66118;SDS011;52912;48.564;9.302;2024-02-21T05:21:45;8.95;;;4.63;;
66118;SDS011;52912;48.564;9.302;2024-02-21T05:24:10;8.18;;;4.85;;
66118;SDS011;52912;48.564;9.302;2024-02-21T05:26:36;11.27;;;5.45;;
66118;SDS011;52912;48.564;9.302;2024-02-21T05:29:01;8.50;;;4.65;;
66118;SDS011;52912;48.564;9.302;2024-02-21T05:31:29;13.55;;;4.82;;
66118;SDS011;52912;48.564;9.302;2024-02-21T05:34:19;12.63;;;4.93;;
66118;SDS011;52912;48.564;9.302;2024-02-21T05:36:45;11.13;;;4.75;;
66118;SDS011;52912;48.564;9.302;2024-02-21T05:39:11;7.45;;;4.57;;
66118;SDS011;52912;48.564;9.302;2024-02-21T05:41:36;13.00;;;4.47;;
66118;SDS011;52912;48.564;9.302;2024-02-21T05:44:02;8.02;;;3.92;;
66118;SDS011;52912;48.564;9.302;2024-02-21T05:46:29;15.85;;;4.63;;
66118;SDS011;52912;48.564;9.302;2024-02-21T05:48:54;35.08;;;13.43;;
66118;SDS011;52912;48.564;9.302;2024-02-21T05:51:19;24.50;;;11.82;;
66118;SDS011;52912;48.564;9.302;2024-02-21T05:53:45;18.17;;;8.90;;
66118;SDS011;52912;48.564;9.302;2024-02-21T05:56:10;14.20;;;6.15;;
66118;SDS011;52912;48.564;9.302;2024-02-21T05:58:36;13.82;;;5.28;;
66118;SDS011;52912;48.564;9.302;2024-02-21T06:01:01;8.60;;;4.15;;
66118;SDS011;52912;48.564;9.302;2024-02-21T06:03:29;11.90;;;4.47;;
66118;SDS011;52912;48.564;9.302;2024-02-21T06:05:54;8.55;;;3.30;;
66118;SDS011;52912;48.564;9.302;2024-02-21T06:08:20;7.50;;;3.30;;
66118;SDS011;52912;48.564;9.302;2024-02-21T06:10:45;7.95;;;2.95;;
66118;SDS011;52912;48.564;9.302;2024-02-21T06:13:11;10.90;;;3.97;;
66118;SDS011;52912;48.564;9.302;2024-02-21T06:15:36;11.93;;;3.97;;
66118;SDS011;52912;48.564;9.302;2024-02-21T06:18:02;8.73;;;3.53;;
66118;SDS011;52912;48.564;9.302;2024-02-21T06:20:29;8.32;;;3.83;;
66118;SDS011;52912;48.564;9.302;2024-02-21T06:22:54;12.52;;;3.85;;
66118;SDS011;52912;48.564;9.302;2024-02-21T06:25:20;11.85;;;4.50;;
66118;SDS011;52912;48.564;9.302;2024-02-21T06:27:45;15.20;;;5.32;;
66118;SDS011;52912;48.564;9.302;2024-02-21T06:30:11;12.07;;;3.60;;
66118;SDS011;52912;48.564;9.302;2024-02-21T06:32:37;7.95;;;3.58;;
66118;SDS011;52912;48.564;9.302;2024-02-21T06:35:03;12.48;;;4.07;;
66118;SDS011;52912;48.564;9.302;2024-02-21T06:37:30;12.70;;;4.00;;
66118;SDS011;52912;48.564;9.302;2024-02-21T06:39:55;8.80;;;3.40;;
66118;SDS011;52912;48.564;9.302;2024-02-21T06:42:21;8.80;;;3.38;;
66118;SDS011;52912;48.564;9.302;2024-02-21T06:44:46;9.00;;;3.58;;
66118;SDS011;52912;48.564;9.302;2024-02-21T06:47:12;6.55;;;3.28;;
66118;SDS011;52912;48.564;9.302;2024-02-21T06:49:37;8.73;;;3.30;;
66118;SDS011;52912;48.564;9.302;2024-02-21T06:52:03;9.20;;;3.40;;
66118;SDS011;52912;48.564;9.302;2024-02-21T06:54:30;9.77;;;3.65;;
66118;SDS011;52912;48.564;9.302;2024-02-21T06:56:56;7.75;;;3.50;;
66118;SDS011;52912;48.564;9.302;2024-02-21T06:59:21;9.40;;;3.67;;
66118;SDS011;52912;48.564;9.302;2024-02-21T07:01:47;7.15;;;3.20;;
66118;SDS011;52912;48.564;9.302;2024-02-21T07:04:13;9.35;;;4.00;;
66118;SDS011;52912;48.564;9.302;2024-02-21T07:06:39;10.20;;;3.72;;
66118;SDS011;52912;48.564;9.302;2024-02-21T07:09:04;10.38;;;3.38;;
66118;SDS011;52912;48.564;9.302;2024-02-21T07:11:31;9.40;;;3.35;;
66118;SDS011;52912;48.564;9.302;2024-02-21T07:13:57;7.28;;;2.92;;
66118;SDS011;52912;48.564;9.302;2024-02-21T07:16:22;14.20;;;3.85;;
66118;SDS011;52912;48.564;9.302;2024-02-21T07:18:47;10.05;;;3.92;;
66118;SDS011;52912;48.564;9.302;2024-02-21T07:21:13;11.05;;;4.22;;
66118;SDS011;52912;48.564;9.302;2024-02-21T07:23:40;10.02;;;4.05;;
66118;SDS011;52912;48.564;9.302;2024-02-21T07:26:06;10.45;;;3.65;;
66118;SDS011;52912;48.564;9.302;2024-02-21T07:28:32;9.18;;;3.60;;
66118;SDS011;52912;48.564;9.302;2024-02-21T07:30:58;9.40;;;3.85;;
66118;SDS011;52912;48.564;9.302;2024-02-21T07:33:24;7.82;;;3.10;;
66118;SDS011;52912;48.564;9.302;2024-02-21T07:35:49;11.63;;;4.18;;
66118;SDS011;52912;48.564;9.302;2024-02-21T07:38:15;8.00;;;3.13;;
66118;SDS011;52912;48.564;9.302;2024-02-21T07:40:40;11.35;;;3.42;;
66118;SDS011;52912;48.564;9.302;2024-02-21T07:43:05;10.52;;;3.42;;
66118;SDS011;52912;48.564;9.302;2024-02-21T07:45:32;9.57;;;3.47;;
66118;SDS011;52912;48.564;9.302;2024-02-21T07:47:58;15.32;;;5.85;;
66118;SDS011;52912;48.564;9.302;2024-02-21T07:50:23;8.77;;;3.58;;
66118;SDS011;52912;48.564;9.302;2024-02-21T07:52:49;11.20;;;3.33;;
66118;SDS011;52912;48.564;9.302;2024-02-21T07:55:14;9.77;;;3.40;;
66118;SDS011;52912;48.564;9.302;2024-02-21T07:57:40;15.77;;;4.22;;
66118;SDS011;52912;48.564;9.302;2024-02-21T08:00:06;7.72;;;3.92;;
66118;SDS011;52912;48.564;9.302;2024-02-21T08:02:33;9.35;;;3.47;;
66118;SDS011;52912;48.564;9.302;2024-02-21T08:04:59;9.57;;;3.88;;
66118;SDS011;52912;48.564;9.302;2024-02-21T08:07:24;10.80;;;3.65;;
66118;SDS011;52912;48.564;9.302;2024-02-21T08:09:49;13.80;;;4.05;;
66118;SDS011;52912;48.564;9.302;2024-02-21T08:12:15;11.00;;;3.78;;
66118;SDS011;52912;48.564;9.302;2024-02-21T08:14:40;11.15;;;4.10;;
66118;SDS011;52912;48.564;9.302;2024-02-21T08:17:06;11.77;;;4.40;;
66118;SDS011;52912;48.564;9.302;2024-02-21T08:19:33;13.93;;;4.93;;
66118;SDS011;52912;48.564;9.302;2024-02-21T08:21:58;12.38;;;4.60;;
66118;SDS011;52912;48.564;9.302;2024-02-21T08:24:24;17.63;;;6.88;;
66118;SDS011;52912;48.564;9.302;2024-02-21T08:26:49;13.57;;;5.22;;
66118;SDS011;52912;48.564;9.302;2024-02-21T08:29:15;10.85;;;4.70;;
66118;SDS011;52912;48.564;9.302;2024-02-21T08:31:40;11.20;;;4.93;;
66118;SDS011;52912;48.564;9.302;2024-02-21T08:34:05;11.27;;;4.60;;
66118;SDS011;52912;48.564;9.302;2024-02-21T08:36:33;9.45;;;4.22;;
66118;SDS011;52912;48.564;9.302;2024-02-21T08:38:59;8.68;;;4.35;;
66118;SDS011;52912;48.564;9.302;2024-02-21T08:41:25;12.10;;;4.03;;
66118;SDS011;52912;48.564;9.302;2024-02-21T08:43:51;14.73;;;4.22;;
66118;SDS011;52912;48.564;9.302;2024-02-21T08:46:17;9.65;;;4.00;;
66118;SDS011;52912;48.564;9.302;2024-02-21T08:48:43;12.98;;;4.25;;
66118;SDS011;52912;48.564;9.302;2024-02-21T08:51:08;10.93;;;3.95;;
66118;SDS011;52912;48.564;9.302;2024-02-21T08:53:35;17.45;;;4.30;;
66118;SDS011;52912;48.564;9.302;2024-02-21T08:56:01;12.35;;;4.18;;
66118;SDS011;52912;48.564;9.302;2024-02-21T08:58:26;10.50;;;3.72;;
66118;SDS011;52912;48.564;9.302;2024-02-21T09:00:51;12.63;;;4.18;;
66118;SDS011;52912;48.564;9.302;2024-02-21T09:03:17;12.82;;;4.00;;
66118;SDS011;52912;48.564;9.302;2024-02-21T09:05:42;14.38;;;4.18;;
66118;SDS011;52912;48.564;9.302;2024-02-21T09:08:08;11.73;;;3.78;;
66118;SDS011;52912;48.564;9.302;2024-02-21T09:10:35;12.10;;;3.80;;
66118;SDS011;52912;48.564;9.302;2024-02-21T09:13:00;9.30;;;3.65;;
66118;SDS011;52912;48.564;9.302;2024-02-21T09:15:25;13.35;;;3.65;;
66118;SDS011;52912;48.564;9.302;2024-02-21T09:17:51;12.30;;;3.58;;
66118;SDS011;52912;48.564;9.302;2024-02-21T09:20:16;7.18;;;3.65;;
66118;SDS011;52912;48.564;9.302;2024-02-21T09:22:42;13.05;;;3.88;;
66118;SDS011;52912;48.564;9.302;2024-02-21T09:25:07;13.20;;;3.50;;
66118;SDS011;52912;48.564;9.302;2024-02-21T09:27:34;7.20;;;3.88;;
66118;SDS011;52912;48.564;9.302;2024-02-21T09:30:00;12.43;;;3.70;;
66118;SDS011;52912;48.564;9.302;2024-02-21T09:32:25;12.48;;;4.13;;
66118;SDS011;52912;48.564;9.302;2024-02-21T09:34:51;11.52;;;4.00;;
66118;SDS011;52912;48.564;9.302;2024-02-21T09:37:16;11.27;;;4.00;;
66118;SDS011;52912;48.564;9.302;2024-02-21T09:39:41;9.38;;;3.63;;
66118;SDS011;52912;48.564;9.302;2024-02-21T09:42:07;11.40;;;3.85;;
66118;SDS011;52912;48.564;9.302;2024-02-21T09:44:37;6.25;;;3.22;;
66118;SDS011;52912;48.564;9.302;2024-02-21T09:47:03;8.30;;;3.38;;
66118;SDS011;52912;48.564;9.302;2024-02-21T09:49:32;7.10;;;3.85;;
66118;SDS011;52912;48.564;9.302;2024-02-21T09:51:58;9.63;;;3.38;;
66118;SDS011;52912;48.564;9.302;2024-02-21T09:54:25;10.43;;;4.03;;
66118;SDS011;52912;48.564;9.302;2024-02-21T09:56:52;9.90;;;3.33;;
66118;SDS011;52912;48.564;9.302;2024-02-21T09:59:18;11.90;;;3.40;;
66118;SDS011;52912;48.564;9.302;2024-02-21T10:01:45;7.65;;;3.60;;
66118;SDS011;52912;48.564;9.302;2024-02-21T10:04:10;5.97;;;3.28;;
66118;SDS011;52912;48.564;9.302;2024-02-21T10:06:36;11.85;;;3.58;;
66118;SDS011;52912;48.564;9.302;2024-02-21T10:09:01;10.55;;;3.63;;
66118;SDS011;52912;48.564;9.302;2024-02-21T10:11:27;13.15;;;4.40;;
66118;SDS011;52912;48.564;9.302;2024-02-21T10:14:02;12.40;;;5.63;;
66118;SDS011;52912;48.564;9.302;2024-02-21T10:16:28;11.27;;;3.78;;
66118;SDS011;52912;48.564;9.302;2024-02-21T10:18:55;13.32;;;3.53;;
66118;SDS011;52912;48.564;9.302;2024-02-21T10:21:20;7.40;;;3.45;;
66118;SDS011;52912;48.564;9.302;2024-02-21T10:23:46;8.10;;;3.38;;
66118;SDS011;52912;48.564;9.302;2024-02-21T10:26:13;11.50;;;3.88;;
66118;SDS011;52912;48.564;9.302;2024-02-21T10:28:39;12.52;;;3.63;;
66118;SDS011;52912;48.564;9.302;2024-02-21T10:31:05;12.43;;;3.47;;
66118;SDS011;52912;48.564;9.302;2024-02-21T10:33:30;11.40;;;4.15;;
66118;SDS011;52912;48.564;9.302;2024-02-21T10:36:06;8.90;;;3.10;;
66118;SDS011;52912;48.564;9.302;2024-02-21T10:38:32;7.57;;;3.47;;
66118;SDS011;52912;48.564;9.302;2024-02-21T10:40:58;9.65;;;2.95;;
66118;SDS011;52912;48.564;9.302;2024-02-21T10:43:24;8.32;;;2.63;;
66118;SDS011;52912;48.564;9.302;2024-02-21T10:45:50;6.78;;;3.00;;
66118;SDS011;52912;48.564;9.302;2024-02-21T10:48:19;7.85;;;2.95;;
66118;SDS011;52912;48.564;9.302;2024-02-21T10:50:53;8.05;;;2.92;;
66118;SDS011;52912;48.564;9.302;2024-02-21T10:53:27;6.07;;;2.55;;
66118;SDS011;52912;48.564;9.302;2024-02-21T10:56:02;5.50;;;2.40;;
66118;SDS011;52912;48.564;9.302;2024-02-21T10:58:36;9.25;;;2.47;;
66118;SDS011;52912;48.564;9.302;2024-02-21T11:01:03;5.45;;;2.40;;
66118;SDS011;52912;48.564;9.302;2024-02-21T11:03:29;9.50;;;2.55;;
66118;SDS011;52912;48.564;9.302;2024-02-21T11:05:55;6.65;;;2.55;;
66118;SDS011;52912;48.564;9.302;2024-02-21T11:08:20;8.10;;;2.30;;
66118;SDS011;52912;48.564;9.302;2024-02-21T11:10:48;5.10;;;2.45;;
66118;SDS011;52912;48.564;9.302;2024-02-21T11:13:13;6.47;;;2.42;;
66118;SDS011;52912;48.564;9.302;2024-02-21T11:15:39;8.95;;;2.30;;
66118;SDS011;52912;48.564;9.302;2024-02-21T11:18:04;6.25;;;2.75;;
66118;SDS011;52912;48.564;9.302;2024-02-21T11:20:33;6.78;;;2.85;;
66118;SDS011;52912;48.564;9.302;2024-02-21T11:23:00;7.05;;;2.53;;
66118;SDS011;52912;48.564;9.302;2024-02-21T11:25:25;11.38;;;2.75;;
66118;SDS011;52912;48.564;9.302;2024-02-21T11:27:59;9.07;;;2.92;;
66118;SDS011;52912;48.564;9.302;2024-02-21T11:30:26;5.80;;;2.60;;
66118;SDS011;52912;48.564;9.302;2024-02-21T11:32:58;7.55;;;2.88;;
66118;SDS011;52912;48.564;9.302;2024-02-21T11:35:25;8.82;;;2.28;;
66118;SDS011;52912;48.564;9.302;2024-02-21T11:37:56;7.47;;;2.47;;
66118;SDS011;52912;48.564;9.302;2024-02-21T11:40:21;8.77;;;2.65;;
66118;SDS011;52912;48.564;9.302;2024-02-21T11:42:47;7.72;;;2.78;;
66118;SDS011;52912;48.564;9.302;2024-02-21T11:45:15;7.65;;;2.95;;
66118;SDS011;52912;48.564;9.302;2024-02-21T11:47:42;8.95;;;2.50;;
66118;SDS011;52912;48.564;9.302;2024-02-21T11:50:09;5.95;;;2.22;;
66118;SDS011;52912;48.564;9.302;2024-02-21T11:52:35;9.55;;;2.60;;
66118;SDS011;52912;48.564;9.302;2024-02-21T11:55:00;7.22;;;3.00;;
66118;SDS011;52912;48.564;9.302;2024-02-21T11:57:26;5.47;;;2.20;;
66118;SDS011;52912;48.564;9.302;2024-02-21T11:59:51;5.68;;;2.53;;
66118;SDS011;52912;48.564;9.302;2024-02-21T12:02:18;5.93;;;2.35;;
66118;SDS011;52912;48.564;9.302;2024-02-21T12:04:44;7.53;;;2.03;;
66118;SDS011;52912;48.564;9.302;2024-02-21T12:07:09;6.32;;;2.38;;
66118;SDS011;52912;48.564;9.302;2024-02-21T12:09:35;8.35;;;2.60;;
66118;SDS011;52912;48.564;9.302;2024-02-21T12:12:01;9.20;;;2.50;;
66118;SDS011;52912;48.564;9.302;2024-02-21T12:14:28;9.05;;;2.88;;
66118;SDS011;52912;48.564;9.302;2024-02-21T12:16:54;8.18;;;3.08;;
66118;SDS011;52912;48.564;9.302;2024-02-21T12:19:21;7.72;;;2.80;;
66118;SDS011;52912;48.564;9.302;2024-02-21T12:21:47;9.93;;;2.90;;
66118;SDS011;52912;48.564;9.302;2024-02-21T12:24:13;5.82;;;2.90;;
66118;SDS011;52912;48.564;9.302;2024-02-21T12:26:39;8.43;;;3.10;;
66118;SDS011;52912;48.564;9.302;2024-02-21T12:29:05;6.60;;;2.83;;
66118;SDS011;52912;48.564;9.302;2024-02-21T12:31:30;6.88;;;3.08;;
66118;SDS011;52912;48.564;9.302;2024-02-21T12:33:56;5.43;;;2.47;;
66118;SDS011;52912;48.564;9.302;2024-02-21T12:36:23;7.03;;;2.85;;
66118;SDS011;52912;48.564;9.302;2024-02-21T12:38:48;6.57;;;2.55;;
66118;SDS011;52912;48.564;9.302;2024-02-21T12:41:13;6.07;;;2.53;;
66118;SDS011;52912;48.564;9.302;2024-02-21T12:43:39;8.05;;;2.38;;
66118;SDS011;52912;48.564;9.302;2024-02-21T12:46:04;5.70;;;2.13;;
66118;SDS011;52912;48.564;9.302;2024-02-21T12:48:30;6.65;;;2.58;;
66118;SDS011;52912;48.564;9.302;2024-02-21T12:50:55;7.38;;;2.75;;
66118;SDS011;52912;48.564;9.302;2024-02-21T12:53:22;11.55;;;2.42;;
66118;SDS011;52912;48.564;9.302;2024-02-21T12:55:48;4.50;;;2.03;;
66118;SDS011;52912;48.564;9.302;2024-02-21T12:58:13;6.70;;;2.20;;
66118;SDS011;52912;48.564;9.302;2024-02-21T13:00:39;8.13;;;2.50;;
66118;SDS011;52912;48.564;9.302;2024-02-21T13:03:04;5.47;;;2.25;;
66118;SDS011;52912;48.564;9.302;2024-02-21T13:05:30;6.32;;;2.25;;
66118;SDS011;52912;48.564;9.302;2024-02-21T13:07:55;5.65;;;2.65;;
66118;SDS011;52912;48.564;9.302;2024-02-21T13:10:22;6.78;;;2.60;;
66118;SDS011;52912;48.564;9.302;2024-02-21T13:12:47;6.40;;;2.30;;
66118;SDS011;52912;48.564;9.302;2024-02-21T13:15:13;6.28;;;2.50;;
66118;SDS011;52912;48.564;9.302;2024-02-21T13:17:38;6.63;;;2.15;;
66118;SDS011;52912;48.564;9.302;2024-02-21T13:20:04;4.88;;;2.00;;
66118;SDS011;52912;48.564;9.302;2024-02-21T13:22:30;4.75;;;2.00;;
66118;SDS011;52912;48.564;9.302;2024-02-21T13:24:56;5.45;;;2.08;;
66118;SDS011;52912;48.564;9.302;2024-02-21T13:27:23;9.20;;;1.80;;
66118;SDS011;52912;48.564;9.302;2024-02-21T13:29:48;6.07;;;2.10;;
66118;SDS011;52912;48.564;9.302;2024-02-21T13:32:13;4.68;;;2.10;;
66118;SDS011;52912;48.564;9.302;2024-02-21T13:34:39;5.82;;;2.28;;
66118;SDS011;52912;48.564;9.302;2024-02-21T13:37:04;5.95;;;2.03;;
66118;SDS011;52912;48.564;9.302;2024-02-21T13:39:30;4.38;;;2.00;;
66118;SDS011;52912;48.564;9.302;2024-02-21T13:41:55;3.22;;;1.75;;
66118;SDS011;52912;48.564;9.302;2024-02-21T13:44:22;4.95;;;2.00;;
66118;SDS011;52912;48.564;9.302;2024-02-21T13:46:47;6.35;;;2.03;;
66118;SDS011;52912;48.564;9.302;2024-02-21T13:49:13;6.80;;;2.25;;
66118;SDS011;52912;48.564;9.302;2024-02-21T13:51:38;6.75;;;2.30;;
66118;SDS011;52912;48.564;9.302;2024-02-21T13:54:04;8.93;;;2.22;;
66118;SDS011;52912;48.564;9.302;2024-02-21T13:56:29;5.68;;;1.98;;
66118;SDS011;52912;48.564;9.302;2024-02-21T13:58:55;6.03;;;2.13;;
66118;SDS011;52912;48.564;9.302;2024-02-21T14:01:22;6.40;;;2.00;;
66118;SDS011;52912;48.564;9.302;2024-02-21T14:03:47;7.03;;;2.78;;
66118;SDS011;52912;48.564;9.302;2024-02-21T14:06:13;8.48;;;2.90;;
66118;SDS011;52912;48.564;9.302;2024-02-21T14:08:38;5.85;;;2.40;;
66118;SDS011;52912;48.564;9.302;2024-02-21T14:11:03;3.47;;;1.70;;
66118;SDS011;52912;48.564;9.302;2024-02-21T14:13:29;6.15;;;2.15;;
66118;SDS011;52912;48.564;9.302;2024-02-21T14:15:54;6.45;;;2.10;;
66118;SDS011;52912;48.564;9.302;2024-02-21T14:18:21;6.13;;;2.17;;
66118;SDS011;52912;48.564;9.302;2024-02-21T14:20:47;3.72;;;1.90;;
66118;SDS011;52912;48.564;9.302;2024-02-21T14:23:12;7.10;;;1.70;;
66118;SDS011;52912;48.564;9.302;2024-02-21T14:25:38;2.95;;;1.63;;
66118;SDS011;52912;48.564;9.302;2024-02-21T14:28:03;5.82;;;1.73;;
66118;SDS011;52912;48.564;9.302;2024-02-21T14:30:29;5.43;;;1.90;;
66118;SDS011;52912;48.564;9.302;2024-02-21T14:32:54;4.45;;;1.85;;